Dades meteomassalio
Diari Summary for Febrer 13, 2018 Units:  Metric    English   Both
« Previous Day
Next Day »
Diari Semanal Mensual Anual Personalitzat
  Maxima: Minima: Mijana:
Temperatura: -17.8 °C -20.2 °C -15.9 °C
Rosada: -17.8 °C -21.3 °C -18.6 °C
Humitat: Humidity % 46 % 71 %
Velocitat del vent: 0 km/h 0 km/h 16.9 km/h
Racha vent: 0 km/h - -
Vent:- - WNW
Pressio: 0 hPa 34496.6 hPa -
Pluja: 0 mm    
Historical Graphs
 
 
Tabular Data for Febrer 13, 2018
Time Temperature Dew Point Pressure Wind Wind Speed Wind Gust Humidity Rainfall Rate (Hourly) solar Conditions
-17.8 °C -17.8 °C 0 hPa Calm     Humidity % 0 mm SolarRadiationWatts/m^2 W/m2 Conditions
00:03 -16.2 °C -18.8 °C 34659.1 hPa NW 32.8 km/h 32.8 km/h 71 % 0 mm 0.0 W/m2 RA
00:08 -16.2 °C -19 °C 34659.1 hPa NW 29.8 km/h 29.8 km/h 70 % 0 mm 0.0 W/m2 CLR
00:13 -16.2 °C -19 °C 34659.1 hPa NW 29.8 km/h 29.8 km/h 70 % 0 mm 0.0 W/m2 CLR
00:18 -16.2 °C -19 °C 34645.6 hPa NW 29.8 km/h 29.8 km/h 70 % 0 mm 0.0 W/m2 CLR
00:23 -16.6 °C -19.3 °C 34659.1 hPa NW 23.8 km/h 23.8 km/h 70 % 0 mm 0.0 W/m2 CLR
00:28 -16.6 °C -19.2 °C 34659.1 hPa NW 23.8 km/h 23.8 km/h 71 % 0 mm 0.0 W/m2 CLR
00:33 -16.6 °C -19.2 °C 34659.1 hPa NW 23.8 km/h 23.8 km/h 71 % 0 mm 0.0 W/m2 CLR
00:38 -16.6 °C -19.2 °C 34659.1 hPa NW 29.8 km/h 29.8 km/h 71 % 0 mm 0.0 W/m2 CLR
00:43 -16.6 °C -19.3 °C 34659.1 hPa NW 29.8 km/h 29.8 km/h 70 % 0 mm 0.0 W/m2 CLR
00:48 -16.6 °C -19.3 °C 34659.1 hPa NW 28.5 km/h 28.5 km/h 70 % 0 mm 0.0 W/m2 CLR
00:53 -16.6 °C -19.3 °C 34659.1 hPa NW 28.5 km/h 28.5 km/h 70 % 0 mm 0.0 W/m2 CLR
00:58 -16.6 °C -19.3 °C 34659.1 hPa NW 41.7 km/h 41.7 km/h 70 % 0 mm 0.0 W/m2 CLR
01:03 -16.6 °C -19.3 °C 34659.1 hPa WNW 35.7 km/h 35.7 km/h 70 % 0 mm 0.0 W/m2 CLR
01:08 -16.6 °C -19.4 °C 34659.1 hPa NW 29.8 km/h 29.8 km/h 69 % 0 mm 0.0 W/m2 CLR
01:13 -16.6 °C -19.3 °C 34659.1 hPa NW 28.5 km/h 28.5 km/h 70 % 0 mm 0.0 W/m2 CLR
01:18 -16.6 °C -19.3 °C 34659.1 hPa NW 29.8 km/h 29.8 km/h 70 % 0 mm 0.0 W/m2 CLR
01:23 -16.6 °C -19.3 °C 34659.1 hPa NW 29.8 km/h 29.8 km/h 70 % 0 mm 0.0 W/m2 CLR
01:28 -16.6 °C -19.3 °C 34659.1 hPa WNW 26.9 km/h 26.9 km/h 70 % 0 mm 0.0 W/m2 CLR
01:33 -16.8 °C -19.5 °C 34659.1 hPa NW 29.8 km/h 29.8 km/h 71 % 0 mm 0.0 W/m2 CLR
01:38 -16.8 °C -19.5 °C 34659.1 hPa NW 29.8 km/h 29.8 km/h 71 % 0 mm 0.0 W/m2 CLR
01:43 -16.8 °C -19.5 °C 34659.1 hPa NW 23.3 km/h 23.3 km/h 71 % 0 mm 0.0 W/m2 CLR
01:48 -16.8 °C -19.5 °C 34659.1 hPa NW 23.3 km/h 23.3 km/h 71 % 0 mm 0.0 W/m2 CLR
01:53 -17.2 °C -19.8 °C 34659.1 hPa NW 23.8 km/h 23.8 km/h 71 % 0 mm 0.0 W/m2 CLR
01:58 -17.2 °C -19.8 °C 34659.1 hPa NW 28.5 km/h 28.5 km/h 71 % 0 mm 0.0 W/m2 CLR
02:03 -17.2 °C -19.8 °C 34659.1 hPa NW 29.8 km/h 29.8 km/h 71 % 0 mm 0.0 W/m2 CLR
02:08 -17.4 °C -20.1 °C 34659.1 hPa WNW 26.9 km/h 26.9 km/h 71 % 0 mm 0.0 W/m2 CLR
02:13 -17.4 °C -20.1 °C 34659.1 hPa NW 23.8 km/h 23.8 km/h 71 % 0 mm 0.0 W/m2 CLR
02:18 -17.8 °C -20.3 °C 34659.1 hPa NW 29.8 km/h 29.8 km/h 71 % 0 mm 0.0 W/m2 CLR
02:23 -17.8 °C -20.3 °C 34659.1 hPa NW 26.9 km/h 26.9 km/h 71 % 0 mm 0.0 W/m2 CLR
02:28 -17.8 °C -20.3 °C 34659.1 hPa NW 23.8 km/h 23.8 km/h 71 % 0 mm 0.0 W/m2 CLR
02:33 -17.8 °C -20.4 °C 34659.1 hPa NW 23.8 km/h 23.8 km/h 70 % 0 mm 0.0 W/m2 CLR
02:38 -17.8 °C -20.4 °C 34659.1 hPa WNW 26.9 km/h 26.9 km/h 70 % 0 mm 0.0 W/m2 CLR
02:43 -17.4 °C -20.2 °C 34659.1 hPa WNW 26.9 km/h 26.9 km/h 70 % 0 mm 0.0 W/m2 CLR
02:48 -17.4 °C -20.2 °C 34659.1 hPa WNW 23.8 km/h 23.8 km/h 70 % 0 mm 0.0 W/m2 CLR
02:53 -17.8 °C -20.4 °C 34659.1 hPa WNW 25.9 km/h 25.9 km/h 70 % 0 mm 0.0 W/m2 CLR
02:58 -17.8 °C -20.6 °C 34659.1 hPa WNW 26.9 km/h 26.9 km/h 69 % 0 mm 0.0 W/m2 CLR
03:03 -17.8 °C -20.6 °C 34659.1 hPa WNW 29.8 km/h 29.8 km/h 69 % 0 mm 0.0 W/m2 CLR
03:08 -17.4 °C -20.3 °C 34659.1 hPa WNW 29.8 km/h 29.8 km/h 69 % 0 mm 0.0 W/m2 CLR
03:13 -17.4 °C -20.3 °C 34659.1 hPa NW 26.9 km/h 26.9 km/h 69 % 0 mm 0.0 W/m2 CLR
03:18 -17.2 °C -19.9 °C 34659.1 hPa NW 29.8 km/h 29.8 km/h 70 % 0 mm 0.0 W/m2 CLR
03:23 -16.8 °C -19.6 °C 34659.1 hPa NW 23.8 km/h 23.8 km/h 70 % 0 mm 0.0 W/m2 CLR
03:28 -17.2 °C -19.9 °C 34645.6 hPa NW 20.9 km/h 20.9 km/h 70 % 0 mm 0.0 W/m2 CLR
03:33 -17.2 °C -19.9 °C 34645.6 hPa NW 15 km/h 15 km/h 70 % 0 mm 0.0 W/m2 CLR
03:38 -17.2 °C -19.9 °C 34645.6 hPa NNW 11.9 km/h 11.9 km/h 70 % 0 mm 0.0 W/m2 CLR
03:43 -17.4 °C -20.1 °C 34645.6 hPa NW 15 km/h 15 km/h 71 % 0 mm 0.0 W/m2 CLR
03:48 -17.8 °C -20.3 °C 34645.6 hPa Calm     71 % 0 mm 0.0 W/m2 CLR
03:53 -18.1 °C -20.6 °C 34635.4 hPa Calm     72 % 0 mm 0.0 W/m2 CLR
03:58 -18.1 °C -20.4 °C 34635.4 hPa Calm     73 % 0 mm 0.0 W/m2 CLR
04:03 -18.4 °C -20.7 °C 34645.6 hPa Calm     74 % 0 mm 0.0 W/m2 CLR
04:08 -18.4 °C -20.4 °C 34645.6 hPa Calm     76 % 0 mm 0.0 W/m2 CLR
04:13 -18.4 °C -20.3 °C 34645.6 hPa Calm     77 % 0 mm 0.0 W/m2 CLR
04:18 -18.4 °C -20.2 °C 34635.4 hPa Calm     78 % 0 mm 0.0 W/m2 CLR
04:23 -18.7 °C -20.6 °C 34635.4 hPa Calm     78 % 0 mm 0.0 W/m2 CLR
04:28 -18.7 °C -20.6 °C 34635.4 hPa Calm     78 % 0 mm 0.0 W/m2 CLR
04:33 -18.7 °C -20.4 °C 34635.4 hPa Calm     79 % 0 mm 0.0 W/m2 CLR
04:34 -18.7 °C -20.4 °C 34635.4 hPa Calm     79 % 0 mm 0.0 W/m2 CLR
04:39 -18.7 °C -20.4 °C 34635.4 hPa Calm     79 % 0 mm 0.0 W/m2 CLR
04:44 -18.7 °C -20.4 °C 34635.4 hPa Calm     79 % 0 mm 0.0 W/m2 CLR
04:49 -18.7 °C -20.4 °C 34635.4 hPa WNW 9 km/h 9 km/h 79 % 0 mm 0.0 W/m2 CLR
04:54 -18.7 °C -20.6 °C 34635.4 hPa Calm     78 % 0 mm 0.0 W/m2 CLR
04:59 -18.7 °C -20.6 °C 34635.4 hPa Calm     78 % 0 mm 0.0 W/m2 CLR
05:04 -18.7 °C -20.6 °C 34625.2 hPa Calm     78 % 0 mm 0.0 W/m2 CLR
05:09 -18.7 °C -20.6 °C 34635.4 hPa Calm     78 % 0 mm 0.0 W/m2 CLR
05:14 -18.7 °C -20.6 °C 34635.4 hPa Calm     78 % 0 mm 0.0 W/m2 CLR
05:19 -18.7 °C -20.6 °C 34625.2 hPa Calm     78 % 0 mm 0.0 W/m2 CLR
05:24 -18.7 °C -20.4 °C 34625.2 hPa Calm     79 % 0 mm 0.0 W/m2 CLR
05:29 -19 °C -20.7 °C 34625.2 hPa Calm     80 % 0 mm 0.0 W/m2 CLR
05:34 -19.3 °C -20.9 °C 34625.2 hPa Calm     81 % 0 mm 0.0 W/m2 CLR
05:39 -19.3 °C -20.8 °C 34625.2 hPa Calm     82 % 0 mm 0.0 W/m2 CLR
05:44 -19.6 °C -21 °C 34625.2 hPa Calm     83 % 0 mm 0.0 W/m2 CLR
05:49 -19.6 °C -20.9 °C 34625.2 hPa Calm     84 % 0 mm 0.0 W/m2 CLR
05:54 -19.6 °C -20.9 °C 34625.2 hPa Calm     84 % 0 mm 0.0 W/m2 CLR
05:59 -19.6 °C -20.9 °C 34625.2 hPa Calm     84 % 0 mm 0.0 W/m2 CLR
06:04 -19.6 °C -20.8 °C 34625.2 hPa Calm     85 % 0 mm 0.0 W/m2 CLR
06:09 -19.6 °C -20.8 °C 34625.2 hPa Calm     85 % 0 mm 0.0 W/m2 CLR
06:14 -19.6 °C -20.7 °C 34625.2 hPa Calm     86 % 0 mm 0.0 W/m2 CLR
06:19 -19.6 °C -20.7 °C 34625.2 hPa Calm     86 % 0 mm 0.0 W/m2 CLR
06:24 -19.6 °C -20.7 °C 34625.2 hPa Calm     86 % 0 mm 0.0 W/m2 CLR
06:29 -19.9 °C -21.1 °C 34625.2 hPa Calm     86 % 0 mm 0.0 W/m2 CLR
06:34 -19.9 °C -21.1 °C 34611.7 hPa Calm     86 % 0 mm 0.0 W/m2 CLR
06:39 -19.9 °C -21.1 °C 34625.2 hPa Calm     86 % 0 mm 0.0 W/m2 CLR
06:44 -19.9 °C -21.1 °C 34625.2 hPa Calm     86 % 0 mm 0.0 W/m2 CLR
06:49 -19.6 °C -20.7 °C 34625.2 hPa Calm     87 % 0 mm 0.0 W/m2 CLR
06:54 -19.9 °C -21.1 °C 34611.7 hPa Calm     86 % 0 mm 0.0 W/m2 CLR
06:59 -19.9 °C -21.1 °C 34611.7 hPa Calm     86 % 0 mm 0.0 W/m2 CLR
07:04 -19.9 °C -21.1 °C 34611.7 hPa Calm     86 % 0 mm 0.0 W/m2 CLR
07:09 -19.9 °C -21.1 °C 34611.7 hPa Calm     86 % 0 mm 0.0 W/m2 CLR
07:14 -19.9 °C -21.1 °C 34611.7 hPa Calm     86 % 0 mm 0.0 W/m2 CLR
07:19 -19.9 °C -20.9 °C 34611.7 hPa Calm     87 % 0 mm 0.0 W/m2 CLR
07:24 -20.2 °C -21.3 °C 34611.7 hPa Calm     87 % 0 mm 0.0 W/m2 CLR
07:30 -19.9 °C -20.9 °C 34611.7 hPa Calm     87 % 0 mm 0.0 W/m2 CLR
07:35 -19.9 °C -20.9 °C 34611.7 hPa Calm     87 % 0 mm 0.0 W/m2 CLR
07:40 -19.9 °C -20.9 °C 34611.7 hPa Calm     87 % 0 mm 0.0 W/m2 CLR
07:45 -19.9 °C -20.9 °C 34611.7 hPa Calm     87 % 0 mm 0.0 W/m2 CLR
07:50 -20.2 °C -21.2 °C 34611.7 hPa Calm     88 % 0 mm 0.0 W/m2 OVC
07:55 -20.2 °C -21.2 °C 34611.7 hPa Calm     88 % 0 mm 0.0 W/m2 OVC
08:00 -19.9 °C -20.9 °C 34625.2 hPa Calm     88 % 0 mm 5.0 W/m2 OVC
08:05 -19.9 °C -20.9 °C 34611.7 hPa Calm     88 % 0 mm 9.0 W/m2 BKN
08:10 -20.2 °C -21.2 °C 34611.7 hPa Calm     88 % 0 mm 9.0 W/m2 BKN
08:15 -20.2 °C -21.1 °C 34611.7 hPa Calm     89 % 0 mm 11.0 W/m2 BKN
08:20 -19.9 °C -20.8 °C 34625.2 hPa Calm     89 % 0 mm 14.0 W/m2 BKN
08:25 -19.9 °C -20.8 °C 34611.7 hPa Calm     89 % 0 mm 21.0 W/m2 BKN
08:30 -19.9 °C -20.8 °C 34611.7 hPa Calm     89 % 0 mm 30.0 W/m2 BKN
08:35 -19.9 °C -20.8 °C 34625.2 hPa Calm     89 % 0 mm 44.0 W/m2 BKN
08:40 -19.9 °C -20.8 °C 34625.2 hPa Calm     89 % 0 mm 46.0 W/m2 SCT
08:45 -19.9 °C -20.9 °C 34625.2 hPa Calm     88 % 0 mm 74.0 W/m2 FEW
08:50 -19.9 °C -20.9 °C 34625.2 hPa Calm     88 % 0 mm 72.0 W/m2 FEW
08:55 -19.9 °C -20.9 °C 34625.2 hPa Calm     88 % 0 mm 100.0 W/m2 CLR
09:00 -19.9 °C -20.9 °C 34625.2 hPa Calm     88 % 0 mm 113.0 W/m2 CLR
09:05 -19.6 °C -20.6 °C 34625.2 hPa Calm     88 % 0 mm 95.0 W/m2 CLR
09:10 -19.3 °C -20.3 °C 34625.2 hPa Calm     88 % 0 mm 72.0 W/m2 CLR
09:15 -19 °C -19.9 °C 34625.2 hPa Calm     88 % 0 mm 128.0 W/m2 CLR
09:20 -19 °C -20.1 °C 34625.2 hPa Calm     86 % 0 mm 153.0 W/m2 CLR
09:25 -18.7 °C -19.9 °C 34625.2 hPa Calm     85 % 0 mm 121.0 W/m2 CLR
09:30 -18.7 °C -20 °C 34625.2 hPa Calm     84 % 0 mm 142.0 W/m2 CLR
09:35 -18.4 °C -19.8 °C 34625.2 hPa Calm     83 % 0 mm 255.0 W/m2 CLR
09:40 -18.1 °C -19.7 °C 34625.2 hPa Calm     81 % 0 mm 287.0 W/m2 CLR
09:45 -18.1 °C -19.9 °C 34625.2 hPa Calm     79 % 0 mm 255.0 W/m2 CLR
09:50 -17.8 °C -19.7 °C 34611.7 hPa Calm     78 % 0 mm 415.0 W/m2 CLR
09:55 -17.4 °C -19.3 °C 34611.7 hPa Calm     78 % 0 mm 397.0 W/m2 CLR
10:00 -17.2 °C -19.2 °C 34611.7 hPa Calm     77 % 0 mm 192.0 W/m2 CLR
10:05 -16.8 °C -19.1 °C 34611.7 hPa Calm     75 % 0 mm 160.0 W/m2 CLR
10:10 -16.8 °C -19.2 °C 34611.7 hPa Calm     74 % 0 mm 185.0 W/m2 CLR
10:15 -16.6 °C -18.8 °C 34611.7 hPa Calm     74 % 0 mm 253.0 W/m2 CLR
10:20 -16.6 °C -18.8 °C 34611.7 hPa Calm     74 % 0 mm 104.0 W/m2 CLR
10:25 -16.2 °C -18.8 °C 34611.7 hPa Calm     72 % 0 mm 120.0 W/m2 CLR
10:30 -16.2 °C -18.8 °C 34611.7 hPa Calm     71 % 0 mm 450.0 W/m2 CLR
10:35 -16.2 °C -19 °C 34611.7 hPa Calm     70 % 0 mm 257.0 W/m2 CLR
10:40 -15.6 °C -18.6 °C 34611.7 hPa Calm     68 % 0 mm 510.0 W/m2 CLR
10:45 -15.3 °C -18.4 °C 34611.7 hPa Calm     67 % 0 mm 374.0 W/m2 CLR
10:50 -14.7 °C -18.1 °C 34601.5 hPa Calm     65 % 0 mm 462.0 W/m2 CLR
10:55 -14.4 °C -18.1 °C 34601.5 hPa West 23.8 km/h 23.8 km/h 62 % 0 mm 366.0 W/m2 CLR
11:00 -13.8 °C -18.6 °C 34601.5 hPa WNW 31.1 km/h 31.1 km/h 54 % 0 mm 267.0 W/m2 CLR
11:05 -13.4 °C -18.7 °C 34601.5 hPa North 31.1 km/h 31.1 km/h 51 % 0 mm 267.0 W/m2 CLR
11:10 -13.4 °C -18.7 °C 34601.5 hPa NW 26.9 km/h 26.9 km/h 51 % 0 mm 288.0 W/m2 CLR
11:15 -13.4 °C -18.9 °C 34601.5 hPa West 26.9 km/h 26.9 km/h 50 % 0 mm 294.0 W/m2 CLR
11:20 -13.4 °C -19.1 °C 34591.4 hPa WNW 47.6 km/h 47.6 km/h 49 % 0 mm 304.0 W/m2 CLR
11:25 -13.4 °C -19.1 °C 34591.4 hPa NW 29.8 km/h 29.8 km/h 49 % 0 mm 294.0 W/m2 CLR
11:30 -13.2 °C -18.8 °C 34591.4 hPa NW 32.8 km/h 32.8 km/h 49 % 0 mm 281.0 W/m2 CLR
11:35 -13.2 °C -18.8 °C 34591.4 hPa West 38.8 km/h 38.8 km/h 49 % 0 mm 236.0 W/m2 CLR
11:40 -13.2 °C -18.9 °C 34577.8 hPa West 29.8 km/h 29.8 km/h 48 % 0 mm 258.0 W/m2 CLR
11:45 -13.2 °C -18.8 °C 34577.8 hPa WNW 29.8 km/h 29.8 km/h 49 % 0 mm 260.0 W/m2 CLR
11:50 -13.2 °C -18.8 °C 34577.8 hPa WNW 20.8 km/h 20.8 km/h 49 % 0 mm 290.0 W/m2 CLR
11:55 -13.2 °C -18.8 °C 34577.8 hPa West 25.9 km/h 25.9 km/h 49 % 0 mm 350.0 W/m2 CLR
12:00 -12.8 °C -18.8 °C 34577.8 hPa NW 29.8 km/h 29.8 km/h 47 % 0 mm 320.0 W/m2 CLR
12:05 -12.8 °C -18.7 °C 34567.7 hPa WNW 29.8 km/h 29.8 km/h 48 % 0 mm 473.0 W/m2 CLR
12:10 -12.6 °C -18.4 °C 34567.7 hPa NW 33.6 km/h 33.6 km/h 48 % 0 mm 441.0 W/m2 CLR
12:15 -12.6 °C -18.4 °C 34554.1 hPa WNW 32.8 km/h 32.8 km/h 48 % 0 mm 373.0 W/m2 CLR
12:20 -12.6 °C -18.4 °C 34554.1 hPa West 35.7 km/h 35.7 km/h 48 % 0 mm 260.0 W/m2 CLR
12:25 -12.6 °C -18.4 °C 34554.1 hPa NW 35.7 km/h 35.7 km/h 48 % 0 mm 237.0 W/m2 CLR
12:30 -12.6 °C -18.5 °C 34544 hPa WNW 29.8 km/h 29.8 km/h 47 % 0 mm 214.0 W/m2 CLR
12:35 -12.6 °C -18.7 °C 34544 hPa WNW 28.5 km/h 28.5 km/h 46 % 0 mm 232.0 W/m2 CLR
12:40 -12.6 °C -18.5 °C 34544 hPa NW 32.8 km/h 32.8 km/h 47 % 0 mm 260.0 W/m2 CLR
12:45 -12.6 °C -18.7 °C 34544 hPa WNW 29.8 km/h 29.8 km/h 46 % 0 mm 264.0 W/m2 CLR
12:50 -12.6 °C -18.5 °C 34544 hPa NW 26.9 km/h 26.9 km/h 47 % 0 mm 251.0 W/m2 CLR
12:55 -12.6 °C -18.5 °C 34544 hPa NW 5.1 km/h 5.1 km/h 47 % 0 mm 218.0 W/m2 CLR
13:00 -12.6 °C -18.7 °C 34544 hPa NW 23.8 km/h 23.8 km/h 46 % 0 mm 165.0 W/m2 CLR
13:05 -12.6 °C -18.5 °C 34544 hPa NNW 41.7 km/h 41.7 km/h 47 % 0 mm 183.0 W/m2 CLR
13:10 -12.6 °C -18.7 °C 34544 hPa NW 29.8 km/h 29.8 km/h 46 % 0 mm 171.0 W/m2 CLR
13:15 -12.6 °C -18.5 °C 34544 hPa NNW 29.8 km/h 29.8 km/h 47 % 0 mm 214.0 W/m2 CLR
13:20 -12.6 °C -18.4 °C 34544 hPa NNW 35.7 km/h 35.7 km/h 48 % 0 mm 169.0 W/m2 CLR
13:25 -12.6 °C -18.4 °C 34544 hPa North 29.8 km/h 29.8 km/h 48 % 0 mm 204.0 W/m2 CLR
13:30 -12.6 °C -18.2 °C 34544 hPa NNW 29.8 km/h 29.8 km/h 49 % 0 mm 183.0 W/m2 CLR
13:35 -12.6 °C -18.4 °C 34544 hPa NNW 33.6 km/h 33.6 km/h 48 % 0 mm 155.0 W/m2 CLR
13:40 -12.6 °C -18.4 °C 34544 hPa North 23.8 km/h 23.8 km/h 48 % 0 mm 141.0 W/m2 CLR
13:45 -12.8 °C -18.3 °C 34544 hPa NNE 23.8 km/h 23.8 km/h 50 % 0 mm 109.0 W/m2 CLR
13:50 -12.8 °C -18.2 °C 34544 hPa NNE 20.9 km/h 20.9 km/h 51 % 0 mm 76.0 W/m2 CLR
13:56 -12.8 °C -17.9 °C 34554.1 hPa NNE 23.3 km/h 23.3 km/h 53 % 0 mm 60.0 W/m2 FEW
14:01 -13.2 °C -18 °C 34544 hPa NW 51.8 km/h 51.8 km/h 54 % 0 mm 74.0 W/m2 FEW
14:06 -13.4 °C -18 °C 34544 hPa North 50.7 km/h 50.7 km/h 56 % 0 mm 90.0 W/m2 FEW
14:11 -13.4 °C -18 °C 34544 hPa NNE 38.8 km/h 38.8 km/h 56 % 0 mm 118.0 W/m2 CLR
14:16 -13.4 °C -17.9 °C 34544 hPa North 26.9 km/h 26.9 km/h 57 % 0 mm 130.0 W/m2 CLR
14:21 -13.4 °C -17.9 °C 34544 hPa North 33.6 km/h 33.6 km/h 57 % 0 mm 123.0 W/m2 CLR
14:26 -13.4 °C -17.9 °C 34544 hPa NNW 38.8 km/h 38.8 km/h 57 % 0 mm 111.0 W/m2 CLR
14:31 -13.4 °C -17.8 °C 34544 hPa North 29.8 km/h 29.8 km/h 58 % 0 mm 139.0 W/m2 CLR
14:36 -13.2 °C -17.3 °C 34533.8 hPa North 28.5 km/h 28.5 km/h 59 % 0 mm 139.0 W/m2 CLR
14:41 -13.4 °C -17.5 °C 34533.8 hPa North 56.6 km/h 56.6 km/h 60 % 0 mm 90.0 W/m2 CLR
14:46 -13.4 °C -17.1 °C 34544 hPa NNW 29.8 km/h 29.8 km/h 63 % 0 mm 79.0 W/m2 CLR
14:51 -13.8 °C -17.2 °C 34544 hPa North 35.7 km/h 35.7 km/h 65 % 0 mm 72.0 W/m2 FEW
14:56 -14.1 °C -16.9 °C 34544 hPa NNW 47.6 km/h 47.6 km/h 70 % 0 mm 83.0 W/m2 FEW
15:01 -14.4 °C -16.9 °C 34544 hPa NNW 29.8 km/h 29.8 km/h 73 % 0 mm 97.0 W/m2 FEW
15:06 -14.4 °C -16.6 °C 34544 hPa NNW 15 km/h 15 km/h 76 % 0 mm 111.0 W/m2 CLR
15:11 -14.4 °C -16.8 °C 34533.8 hPa NW 23.8 km/h 23.8 km/h 74 % 0 mm 98.0 W/m2 CLR
15:16 -14.4 °C -16.7 °C 34533.8 hPa NW 17.9 km/h 17.9 km/h 75 % 0 mm 98.0 W/m2 CLR
15:21 -14.4 °C -16.6 °C 34520.3 hPa Calm     76 % 0 mm 91.0 W/m2 CLR
15:26 -14.4 °C -16.6 °C 34520.3 hPa NW 9 km/h 9 km/h 76 % 0 mm 121.0 W/m2 CLR
15:31 -14.4 °C -16.6 °C 34520.3 hPa Calm     76 % 0 mm 121.0 W/m2 CLR
15:36 -14.4 °C -16.6 °C 34520.3 hPa Calm     76 % 0 mm 114.0 W/m2 CLR
15:41 -14.4 °C -16.6 °C 34510.1 hPa Calm     76 % 0 mm 111.0 W/m2 CLR
15:46 -14.4 °C -16.4 °C 34510.1 hPa Calm     77 % 0 mm 98.0 W/m2 CLR
15:51 -14.4 °C -16.6 °C 34510.1 hPa Calm     76 % 0 mm 100.0 W/m2 CLR
15:56 -14.4 °C -16.6 °C 34496.6 hPa Calm     76 % 0 mm 105.0 W/m2 CLR
16:01 -14.4 °C -16.6 °C 34510.1 hPa Calm     76 % 0 mm 111.0 W/m2 CLR
16:06 -14.1 °C -16.3 °C 34510.1 hPa Calm     76 % 0 mm 91.0 W/m2 CLR
16:11 -14.1 °C -16.3 °C 34510.1 hPa Calm     76 % 0 mm 100.0 W/m2 CLR
16:16 -14.1 °C -16.3 °C 34510.1 hPa Calm     76 % 0 mm 81.0 W/m2 CLR
16:21 -14.1 °C -16.3 °C 34510.1 hPa Calm     76 % 0 mm 81.0 W/m2 CLR
16:26 -14.1 °C -16.3 °C 34496.6 hPa Calm     76 % 0 mm 72.0 W/m2 FEW
16:31 -14.1 °C -16.3 °C 34496.6 hPa Calm     76 % 0 mm 76.0 W/m2 FEW
16:36 -14.1 °C -16.3 °C 34496.6 hPa Calm     76 % 0 mm 69.0 W/m2 FEW
16:41 -14.1 °C -16.3 °C 34496.6 hPa Calm     76 % 0 mm 56.0 W/m2 SCT
16:46 -14.1 °C -16.3 °C 34496.6 hPa Calm     75 % 0 mm 63.0 W/m2 SCT
16:51 -14.1 °C -16.3 °C 34496.6 hPa Calm     76 % 0 mm 72.0 W/m2 SCT
16:56 -14.1 °C -16.3 °C 34496.6 hPa Calm     76 % 0 mm 67.0 W/m2 FEW
17:01 -14.1 °C -16.3 °C 34496.6 hPa Calm     76 % 0 mm 81.0 W/m2 FEW
17:06 -13.8 °C -16.2 °C 34496.6 hPa NW 10.3 km/h 10.3 km/h 74 % 0 mm 88.0 W/m2 FEW
17:11 -13.8 °C -16.3 °C 34496.6 hPa NW 20.9 km/h 20.9 km/h 73 % 0 mm 86.0 W/m2 FEW
17:16 -13.8 °C -16.4 °C 34496.6 hPa NW 23.8 km/h 23.8 km/h 72 % 0 mm 90.0 W/m2 CLR
17:21 -13.8 °C -16.4 °C 34496.6 hPa NW 6 km/h   72 % 0 mm 74.0 W/m2 FEW
17:26 -13.8 °C -16.5 °C 34496.6 hPa NW 17.9 km/h 17.9 km/h 71 % 0 mm 62.0 W/m2 FEW
17:31 -13.8 °C -16.5 °C 34496.6 hPa WNW 20.9 km/h 20.9 km/h 71 % 0 mm 56.0 W/m2 SCT
17:36 -13.8 °C -16.7 °C 34496.6 hPa WNW 20.9 km/h 20.9 km/h 69 % 0 mm 47.0 W/m2 SCT
17:41 -13.8 °C -16.8 °C 34496.6 hPa NW 20.8 km/h 20.8 km/h 68 % 0 mm 33.0 W/m2 BKN
17:46 -13.8 °C -16.8 °C 34496.6 hPa WNW 15 km/h 15 km/h 68 % 0 mm 26.0 W/m2 BKN
17:51 -13.8 °C -16.8 °C 34496.6 hPa WNW 17.9 km/h 17.9 km/h 68 % 0 mm 18.0 W/m2 BKN
17:56 -13.8 °C -16.8 °C 34510.1 hPa WNW 17.9 km/h 17.9 km/h 68 % 0 mm 18.0 W/m2 BKN
18:01 -13.8 °C -16.8 °C 34496.6 hPa NW 20.9 km/h 20.9 km/h 68 % 0 mm 14.0 W/m2 BKN
18:06 -14.1 °C -17.1 °C 34496.6 hPa WNW 23.8 km/h 23.8 km/h 68 % 0 mm 12.0 W/m2 BKN
18:11 -14.1 °C -17.1 °C 34496.6 hPa NW 23.8 km/h 23.8 km/h 68 % 0 mm 9.0 W/m2 BKN
18:16 -14.1 °C -17.1 °C 34496.6 hPa NW 23.8 km/h 23.8 km/h 68 % 0 mm 7.0 W/m2 BKN
18:21 -14.1 °C -17 °C 34510.1 hPa NW 11.9 km/h 11.9 km/h 69 % 0 mm 7.0 W/m2 BKN
18:26 -14.1 °C -17 °C 34510.1 hPa Calm     69 % 0 mm 0.0 W/m2 OVC
18:31 -14.1 °C -17 °C 34510.1 hPa NW 10.3 km/h 10.3 km/h 69 % 0 mm 0.0 W/m2 OVC
18:36 -14.1 °C -17 °C 34510.1 hPa WNW 10.3 km/h 10.3 km/h 69 % 0 mm 0.0 W/m2 OVC
18:41 -14.4 °C -17.4 °C 34510.1 hPa NW 20.9 km/h 20.9 km/h 68 % 0 mm 0.0 W/m2 OVC
18:46 -14.1 °C -17.1 °C 34496.6 hPa WNW 3.1 km/h   68 % 0 mm 0.0 W/m2 CLR
18:51 -14.1 °C -17.1 °C 34510.1 hPa WNW 12.9 km/h 12.9 km/h 68 % 0 mm 0.0 W/m2 CLR
18:56 -14.1 °C -17.1 °C 34510.1 hPa Calm     68 % 0 mm 0.0 W/m2 CLR
19:01 -14.1 °C -17.1 °C 34510.1 hPa NW 15 km/h 15 km/h 68 % 0 mm 0.0 W/m2 CLR
19:06 -14.4 °C -17.4 °C 34510.1 hPa WNW 15 km/h 15 km/h 68 % 0 mm 0.0 W/m2 CLR
19:11 -14.4 °C -17.3 °C 34510.1 hPa NW 15.6 km/h 15.6 km/h 69 % 0 mm 0.0 W/m2 CLR
19:16 -14.7 °C -17.6 °C 34510.1 hPa NW 20.9 km/h 20.9 km/h 69 % 0 mm 0.0 W/m2 CLR
19:21 -14.7 °C -17.7 °C 34510.1 hPa NW 23.8 km/h 23.8 km/h 68 % 0 mm 0.0 W/m2 CLR
19:26 -15 °C -18 °C 34510.1 hPa NW 20.9 km/h 20.9 km/h 68 % 0 mm 0.0 W/m2 CLR
19:31 -15 °C -18 °C 34496.6 hPa NW 17.9 km/h   68 % 0 mm 0.0 W/m2 CLR
19:36 -15 °C -18 °C 34496.6 hPa WNW 18.2 km/h 18.2 km/h 68 % 0 mm 0.0 W/m2 CLR
19:41 -15.3 °C -18.3 °C 34510.1 hPa WNW 26.9 km/h 26.9 km/h 68 % 0 mm 0.0 W/m2 CLR
19:46 -15.3 °C -18.4 °C 34510.1 hPa NW 23.8 km/h 23.8 km/h 67 % 0 mm 0.0 W/m2 CLR
19:51 -15.3 °C -18.4 °C 34510.1 hPa NW 26.9 km/h 26.9 km/h 67 % 0 mm 0.0 W/m2 CLR
19:56 -15.3 °C -18.4 °C 34510.1 hPa WNW 29.8 km/h 29.8 km/h 67 % 0 mm 0.0 W/m2 CLR
20:01 -15.3 °C -18.4 °C 34510.1 hPa NW 29.8 km/h 29.8 km/h 67 % 0 mm 0.0 W/m2 CLR
20:06 -15.3 °C -18.4 °C 34510.1 hPa NW 28.5 km/h 28.5 km/h 67 % 0 mm 0.0 W/m2 CLR
20:11 -14.7 °C -17.8 °C 34510.1 hPa NW 23.8 km/h 23.8 km/h 67 % 0 mm 0.0 W/m2 CLR
20:16 -14.4 °C -17.6 °C 34510.1 hPa NW 26.9 km/h 26.9 km/h 67 % 0 mm 0.0 W/m2 CLR
20:21 -14.4 °C -17.6 °C 34510.1 hPa NW 26.9 km/h 26.9 km/h 67 % 0 mm 0.0 W/m2 CLR
20:26 -14.4 °C -17.6 °C 34510.1 hPa NW 32.8 km/h 32.8 km/h 67 % 0 mm 0.0 W/m2 CLR
20:31 -14.4 °C -17.4 °C 34510.1 hPa NW 26.9 km/h 26.9 km/h 68 % 0 mm 0.0 W/m2 CLR
20:36 -14.4 °C -17.4 °C 34510.1 hPa NW 29.8 km/h 29.8 km/h 68 % 0 mm 0.0 W/m2 CLR
20:41 -14.4 °C -17.4 °C 34496.6 hPa NW 32.8 km/h 32.8 km/h 68 % 0 mm 0.0 W/m2 CLR
20:46 -14.1 °C -17.1 °C 34496.6 hPa NW 32.8 km/h 32.8 km/h 68 % 0 mm 0.0 W/m2 CLR
20:51 -14.1 °C -17.1 °C 34496.6 hPa WNW 38.8 km/h 38.8 km/h 68 % 0 mm 0.0 W/m2 CLR
20:56 -13.8 °C -16.8 °C 34496.6 hPa NW 38.8 km/h 38.8 km/h 68 % 0 mm 0.0 W/m2 CLR
21:02 -13.8 °C -16.8 °C 34496.6 hPa NW 32.8 km/h 32.8 km/h 68 % 0 mm 0.0 W/m2 CLR
21:07 -13.8 °C -16.8 °C 34510.1 hPa NW 35.7 km/h 35.7 km/h 68 % 0 mm 0.0 W/m2 CLR
21:12 -13.8 °C -16.7 °C 34510.1 hPa NW 29.8 km/h 29.8 km/h 69 % 0 mm 0.0 W/m2 CLR
21:17 -14.1 °C -17 °C 34510.1 hPa NW 29.8 km/h 29.8 km/h 69 % 0 mm 0.0 W/m2 CLR
21:22 -14.1 °C -17 °C 34520.3 hPa NNW 29.8 km/h 29.8 km/h 69 % 0 mm 0.0 W/m2 CLR
21:27 -14.1 °C -16.9 °C 34520.3 hPa NW 26.9 km/h 26.9 km/h 70 % 0 mm 0.0 W/m2 CLR
21:32 -14.1 °C -16.9 °C 34520.3 hPa NNW 29.8 km/h 29.8 km/h 70 % 0 mm 0.0 W/m2 CLR
21:37 -14.1 °C -16.9 °C 34520.3 hPa NW 26.9 km/h 26.9 km/h 70 % 0 mm 0.0 W/m2 CLR
21:42 -14.1 °C -16.9 °C 34520.3 hPa NW 29.8 km/h 29.8 km/h 70 % 0 mm 0.0 W/m2 CLR
21:47 -14.1 °C -16.9 °C 34520.3 hPa North 31.1 km/h 31.1 km/h 70 % 0 mm 0.0 W/m2 CLR
21:52 -13.8 °C -16.6 °C 34520.3 hPa NW 29.8 km/h 29.8 km/h 70 % 0 mm 0.0 W/m2 CLR
21:57 -13.8 °C -16.6 °C 34520.3 hPa NW 29.8 km/h 29.8 km/h 70 % 0 mm 0.0 W/m2 CLR
22:02 -14.1 °C -16.9 °C 34510.1 hPa NW 29.8 km/h 29.8 km/h 70 % 0 mm 0.0 W/m2 CLR
22:07 -14.1 °C -16.9 °C 34520.3 hPa NW 29.8 km/h 29.8 km/h 70 % 0 mm 0.0 W/m2 CLR
22:12 -14.1 °C -16.9 °C 34510.1 hPa NNW 26.9 km/h 26.9 km/h 70 % 0 mm 0.0 W/m2 CLR
22:17 -14.1 °C -16.8 °C 34510.1 hPa NW 23.8 km/h 23.8 km/h 71 % 0 mm 0.0 W/m2 CLR
22:22 -14.4 °C -17.1 °C 34510.1 hPa NW 23.8 km/h 23.8 km/h 71 % 0 mm 0.0 W/m2 CLR
22:27 -14.4 °C -17 °C 34520.3 hPa NW 26.9 km/h 26.9 km/h 72 % 0 mm 0.0 W/m2 CLR
22:32 -14.4 °C -17 °C 34520.3 hPa NW 31.1 km/h 31.1 km/h 72 % 0 mm 0.0 W/m2 CLR
22:37 -14.4 °C -17 °C 34520.3 hPa NW 29.8 km/h 29.8 km/h 72 % 0 mm 0.0 W/m2 CLR
22:42 -14.4 °C -16.9 °C 34520.3 hPa NW 29.8 km/h 29.8 km/h 73 % 0 mm 0.0 W/m2 CLR
22:47 -14.4 °C -16.9 °C 34520.3 hPa NNW 26.9 km/h 26.9 km/h 73 % 0 mm 0.0 W/m2 CLR
22:52 -14.4 °C -16.9 °C 34520.3 hPa North 29.8 km/h 29.8 km/h 73 % 0 mm 0.0 W/m2 CLR
22:58 -14.1 °C -16.5 °C 34520.3 hPa NNW 33.6 km/h 33.6 km/h 74 % 0 mm 0.0 W/m2 CLR
23:03 -14.1 °C -16.6 °C 34520.3 hPa NNW 29.8 km/h 29.8 km/h 73 % 0 mm 0.0 W/m2 CLR
23:08 -14.1 °C -16.5 °C 34520.3 hPa NNW 32.8 km/h 32.8 km/h 74 % 0 mm 0.0 W/m2 CLR
23:13 -14.1 °C -16.6 °C 34520.3 hPa NNW 29.8 km/h 29.8 km/h 73 % 0 mm 0.0 W/m2 CLR
23:18 -14.1 °C -16.5 °C 34520.3 hPa NNW 32.8 km/h 32.8 km/h 74 % 0 mm 0.0 W/m2 CLR
23:23 -14.1 °C -16.5 °C 34520.3 hPa NNW 29.8 km/h 29.8 km/h 74 % 0 mm 0.0 W/m2 CLR
23:28 -14.1 °C -16.5 °C 34520.3 hPa NW 29.8 km/h 29.8 km/h 74 % 0 mm 0.0 W/m2 CLR
23:33 -14.4 °C -16.8 °C 34520.3 hPa NW 23.8 km/h 23.8 km/h 74 % 0 mm 0.0 W/m2 CLR
23:38 -14.4 °C -16.8 °C 34520.3 hPa NW 28.5 km/h 28.5 km/h 74 % 0 mm 0.0 W/m2 CLR
23:43 -14.4 °C -16.8 °C 34520.3 hPa NW 26.9 km/h 26.9 km/h 74 % 0 mm 0.0 W/m2 CLR
23:48 -14.4 °C -16.7 °C 34520.3 hPa NW 26.9 km/h 26.9 km/h 75 % 0 mm 0.0 W/m2 CLR
23:53 -14.4 °C -16.6 °C 34520.3 hPa NNW 29.8 km/h 29.8 km/h 76 % 0 mm 0.0 W/m2 CLR
23:58 -14.4 °C -16.6 °C 34510.1 hPa NW 26.9 km/h 26.9 km/h 76 % 0 mm 0.0 W/m2 CLR
Lo Temps de Massalio
Compliments of Weather Underground - 1.25 mb